sensor_id;sensor_type;location;lat;lon;timestamp;pressure;altitude;pressure_sealevel;temperature;humidity
31183;BME280;17813;0.000;0.000;2022-12-18T00:01:35;100971.97;;;-12.48;78.89
31183;BME280;17813;0.000;0.000;2022-12-18T00:04:04;100969.00;;;-12.39;78.67
31183;BME280;17813;0.000;0.000;2022-12-18T00:06:33;100969.91;;;-12.39;78.31
31183;BME280;17813;0.000;0.000;2022-12-18T00:09:02;100967.88;;;-12.44;78.57
31183;BME280;17813;0.000;0.000;2022-12-18T00:11:31;100969.06;;;-12.54;78.71
31183;BME280;17813;0.000;0.000;2022-12-18T00:13:59;100986.84;;;-12.72;78.30
31183;BME280;17813;0.000;0.000;2022-12-18T00:16:27;100986.38;;;-12.64;78.09
31183;BME280;17813;0.000;0.000;2022-12-18T00:18:56;100980.72;;;-12.59;78.22
31183;BME280;17813;0.000;0.000;2022-12-18T00:21:23;100981.53;;;-12.60;78.29
31183;BME280;17813;0.000;0.000;2022-12-18T00:24:09;100993.66;;;-12.56;78.67
31183;BME280;17813;0.000;0.000;2022-12-18T00:26:38;100985.03;;;-12.58;78.29
31183;BME280;17813;0.000;0.000;2022-12-18T00:29:13;100984.63;;;-12.65;78.95
31183;BME280;17813;0.000;0.000;2022-12-18T00:31:43;100993.47;;;-12.75;79.18
31183;BME280;17813;0.000;0.000;2022-12-18T00:34:13;100989.44;;;-12.86;79.53
31183;BME280;17813;0.000;0.000;2022-12-18T00:36:41;100990.13;;;-12.89;78.94
31183;BME280;17813;0.000;0.000;2022-12-18T00:39:09;100996.31;;;-13.00;78.90
31183;BME280;17813;0.000;0.000;2022-12-18T00:41:37;100991.53;;;-13.09;79.39
31183;BME280;17813;0.000;0.000;2022-12-18T00:44:23;100991.38;;;-13.12;79.41
31183;BME280;17813;0.000;0.000;2022-12-18T00:46:50;100989.78;;;-13.10;79.56
31183;BME280;17813;0.000;0.000;2022-12-18T00:49:32;100997.63;;;-13.07;78.98
31183;BME280;17813;0.000;0.000;2022-12-18T00:52:18;100996.41;;;-12.98;78.93
31183;BME280;17813;0.000;0.000;2022-12-18T00:54:59;100998.50;;;-12.91;79.48
31183;BME280;17813;0.000;0.000;2022-12-18T00:57:26;101001.41;;;-12.85;79.94
31183;BME280;17813;0.000;0.000;2022-12-18T00:59:54;101009.16;;;-12.84;79.76
31183;BME280;17813;0.000;0.000;2022-12-18T01:02:20;101011.44;;;-12.74;79.56
31183;BME280;17813;0.000;0.000;2022-12-18T01:04:47;101004.19;;;-12.66;79.42
31183;BME280;17813;0.000;0.000;2022-12-18T01:07:20;100997.94;;;-12.71;79.02
31183;BME280;17813;0.000;0.000;2022-12-18T01:09:47;100998.31;;;-12.80;78.88
31183;BME280;17813;0.000;0.000;2022-12-18T01:12:14;100996.03;;;-12.90;78.68
31183;BME280;17813;0.000;0.000;2022-12-18T01:14:42;101002.31;;;-13.00;78.42
31183;BME280;17813;0.000;0.000;2022-12-18T01:17:09;101004.13;;;-13.12;78.55
31183;BME280;17813;0.000;0.000;2022-12-18T01:19:36;101007.97;;;-13.20;78.69
31183;BME280;17813;0.000;0.000;2022-12-18T01:22:03;101005.06;;;-13.26;78.64
31183;BME280;17813;0.000;0.000;2022-12-18T01:24:30;101002.78;;;-13.36;78.54
31183;BME280;17813;0.000;0.000;2022-12-18T01:26:57;101006.03;;;-13.39;78.58
31183;BME280;17813;0.000;0.000;2022-12-18T01:29:24;101023.97;;;-13.37;78.16
31183;BME280;17813;0.000;0.000;2022-12-18T01:31:54;101018.44;;;-13.45;78.35
31183;BME280;17813;0.000;0.000;2022-12-18T01:34:21;101025.22;;;-13.45;78.43
31183;BME280;17813;0.000;0.000;2022-12-18T01:36:48;101028.38;;;-13.49;78.60
31183;BME280;17813;0.000;0.000;2022-12-18T01:39:16;101035.78;;;-13.39;78.18
31183;BME280;17813;0.000;0.000;2022-12-18T01:41:43;101047.22;;;-13.33;78.17
31183;BME280;17813;0.000;0.000;2022-12-18T01:47:42;101050.63;;;-13.47;78.09
31183;BME280;17813;0.000;0.000;2022-12-18T01:50:19;101048.59;;;-13.52;78.59
31183;BME280;17813;0.000;0.000;2022-12-18T01:52:59;101042.91;;;-13.48;78.23
31183;BME280;17813;0.000;0.000;2022-12-18T01:55:30;101053.28;;;-13.45;77.75
31183;BME280;17813;0.000;0.000;2022-12-18T01:57:59;101054.06;;;-13.46;78.18
31183;BME280;17813;0.000;0.000;2022-12-18T02:00:30;101046.59;;;-13.43;78.02
31183;BME280;17813;0.000;0.000;2022-12-18T02:03:00;101050.38;;;-13.37;78.37
31183;BME280;17813;0.000;0.000;2022-12-18T02:06:07;101048.34;;;-13.42;78.03
31183;BME280;17813;0.000;0.000;2022-12-18T02:08:43;101050.19;;;-13.54;78.03
31183;BME280;17813;0.000;0.000;2022-12-18T02:17:21;101040.13;;;-13.66;78.57
31183;BME280;17813;0.000;0.000;2022-12-18T02:20:17;101037.31;;;-13.71;79.01
31183;BME280;17813;0.000;0.000;2022-12-18T02:28:05;101041.53;;;-13.71;80.03
31183;BME280;17813;0.000;0.000;2022-12-18T02:30:48;101040.66;;;-13.72;79.00
31183;BME280;17813;0.000;0.000;2022-12-18T02:33:17;101036.69;;;-13.67;79.39
31183;BME280;17813;0.000;0.000;2022-12-18T02:35:47;101039.25;;;-13.67;79.54
31183;BME280;17813;0.000;0.000;2022-12-18T02:38:16;101037.50;;;-13.68;79.36
31183;BME280;17813;0.000;0.000;2022-12-18T02:40:45;101032.13;;;-13.72;79.34
31183;BME280;17813;0.000;0.000;2022-12-18T02:43:15;101033.59;;;-13.76;78.74
31183;BME280;17813;0.000;0.000;2022-12-18T02:45:52;101033.88;;;-13.71;78.36
31183;BME280;17813;0.000;0.000;2022-12-18T02:48:27;101033.97;;;-13.70;78.33
31183;BME280;17813;0.000;0.000;2022-12-18T02:51:02;101037.81;;;-13.76;78.00
31183;BME280;17813;0.000;0.000;2022-12-18T02:53:51;101037.75;;;-14.06;78.12
31183;BME280;17813;0.000;0.000;2022-12-18T02:56:35;101045.25;;;-14.22;77.12
31183;BME280;17813;0.000;0.000;2022-12-18T02:59:17;101047.75;;;-14.09;77.74
31183;BME280;17813;0.000;0.000;2022-12-18T03:01:54;101039.03;;;-14.12;77.57
31183;BME280;17813;0.000;0.000;2022-12-18T03:04:34;101038.25;;;-14.11;77.52
31183;BME280;17813;0.000;0.000;2022-12-18T03:07:12;101037.50;;;-14.23;77.89
31183;BME280;17813;0.000;0.000;2022-12-18T03:09:45;101044.59;;;-14.33;77.71
31183;BME280;17813;0.000;0.000;2022-12-18T03:12:22;101034.75;;;-14.26;77.35
31183;BME280;17813;0.000;0.000;2022-12-18T03:15:23;101034.06;;;-14.24;77.12
31183;BME280;17813;0.000;0.000;2022-12-18T03:18:04;101038.75;;;-14.17;78.17
31183;BME280;17813;0.000;0.000;2022-12-18T03:20:44;101029.69;;;-13.99;78.14
31183;BME280;17813;0.000;0.000;2022-12-18T03:23:24;101032.00;;;-13.88;78.53
31183;BME280;17813;0.000;0.000;2022-12-18T03:25:57;101038.81;;;-13.74;79.00
31183;BME280;17813;0.000;0.000;2022-12-18T03:28:37;101033.53;;;-13.62;78.00
31183;BME280;17813;0.000;0.000;2022-12-18T03:31:24;101030.56;;;-13.55;78.22
31183;BME280;17813;0.000;0.000;2022-12-18T03:34:16;101035.84;;;-13.52;78.74
31183;BME280;17813;0.000;0.000;2022-12-18T03:36:53;101045.53;;;-13.47;78.42
31183;BME280;17813;0.000;0.000;2022-12-18T03:39:24;101047.72;;;-13.53;78.71
31183;BME280;17813;0.000;0.000;2022-12-18T03:42:05;101054.94;;;-13.60;78.44
31183;BME280;17813;0.000;0.000;2022-12-18T03:44:38;101057.72;;;-13.71;78.46
31183;BME280;17813;0.000;0.000;2022-12-18T03:52:54;101051.41;;;-13.90;78.69
31183;BME280;17813;0.000;0.000;2022-12-18T03:55:25;101066.16;;;-14.00;77.75
31183;BME280;17813;0.000;0.000;2022-12-18T03:58:03;101052.13;;;-13.93;78.17
31183;BME280;17813;0.000;0.000;2022-12-18T04:00:34;101059.59;;;-13.96;78.89
31183;BME280;17813;0.000;0.000;2022-12-18T04:03:03;101061.19;;;-14.11;78.34
31183;BME280;17813;0.000;0.000;2022-12-18T04:05:34;101060.41;;;-14.10;78.71
31183;BME280;17813;0.000;0.000;2022-12-18T04:08:03;101068.97;;;-14.23;77.56
31183;BME280;17813;0.000;0.000;2022-12-18T04:10:37;101077.97;;;-14.15;78.47
31183;BME280;17813;0.000;0.000;2022-12-18T04:13:04;101080.81;;;-14.10;78.06
31183;BME280;17813;0.000;0.000;2022-12-18T04:15:35;101084.31;;;-14.08;77.59
31183;BME280;17813;0.000;0.000;2022-12-18T04:18:05;101087.63;;;-13.96;78.29
31183;BME280;17813;0.000;0.000;2022-12-18T04:20:33;101082.06;;;-14.04;78.54
31183;BME280;17813;0.000;0.000;2022-12-18T04:23:00;101081.19;;;-14.04;78.24
31183;BME280;17813;0.000;0.000;2022-12-18T04:25:31;101086.22;;;-14.19;78.71
31183;BME280;17813;0.000;0.000;2022-12-18T04:28:17;101074.53;;;-14.43;77.52
31183;BME280;17813;0.000;0.000;2022-12-18T04:30:44;101071.88;;;-14.45;77.47
31183;BME280;17813;0.000;0.000;2022-12-18T04:33:13;101061.69;;;-14.45;78.33
31183;BME280;17813;0.000;0.000;2022-12-18T04:35:55;101066.63;;;-14.33;77.21
31183;BME280;17813;0.000;0.000;2022-12-18T04:38:22;101061.88;;;-14.42;78.38
31183;BME280;17813;0.000;0.000;2022-12-18T04:40:49;101057.63;;;-14.41;76.96
31183;BME280;17813;0.000;0.000;2022-12-18T04:43:16;101050.28;;;-14.37;78.13
31183;BME280;17813;0.000;0.000;2022-12-18T04:45:44;101051.69;;;-14.42;77.61
31183;BME280;17813;0.000;0.000;2022-12-18T04:48:12;101052.81;;;-14.37;77.26
31183;BME280;17813;0.000;0.000;2022-12-18T04:50:40;101057.50;;;-14.30;78.33
31183;BME280;17813;0.000;0.000;2022-12-18T04:53:10;101060.53;;;-14.22;78.55
31183;BME280;17813;0.000;0.000;2022-12-18T04:55:37;101058.84;;;-14.08;77.62
31183;BME280;17813;0.000;0.000;2022-12-18T04:58:03;101051.16;;;-13.95;78.28
31183;BME280;17813;0.000;0.000;2022-12-18T05:00:34;101058.88;;;-13.93;78.09
31183;BME280;17813;0.000;0.000;2022-12-18T05:03:12;101057.63;;;-14.00;77.56
31183;BME280;17813;0.000;0.000;2022-12-18T05:05:52;101071.59;;;-14.08;77.43
31183;BME280;17813;0.000;0.000;2022-12-18T05:08:19;101073.16;;;-14.10;77.46
31183;BME280;17813;0.000;0.000;2022-12-18T05:10:57;101078.38;;;-14.22;78.07
31183;BME280;17813;0.000;0.000;2022-12-18T05:13:25;101076.53;;;-14.38;77.13
31183;BME280;17813;0.000;0.000;2022-12-18T05:15:54;101067.47;;;-14.47;77.90
31183;BME280;17813;0.000;0.000;2022-12-18T05:18:39;101068.06;;;-14.51;78.32
31183;BME280;17813;0.000;0.000;2022-12-18T05:21:06;101077.84;;;-14.44;77.17
31183;BME280;17813;0.000;0.000;2022-12-18T05:23:33;101084.47;;;-14.33;77.58
31183;BME280;17813;0.000;0.000;2022-12-18T05:26:02;101080.94;;;-14.22;77.40
31183;BME280;17813;0.000;0.000;2022-12-18T05:28:32;101086.88;;;-14.08;78.56
31183;BME280;17813;0.000;0.000;2022-12-18T05:31:03;101081.19;;;-14.04;77.64
31183;BME280;17813;0.000;0.000;2022-12-18T05:33:33;101078.44;;;-14.07;77.45
31183;BME280;17813;0.000;0.000;2022-12-18T05:36:05;101078.81;;;-14.01;77.81
31183;BME280;17813;0.000;0.000;2022-12-18T05:38:34;101087.88;;;-14.19;77.51
31183;BME280;17813;0.000;0.000;2022-12-18T05:41:03;101091.63;;;-14.27;78.20
31183;BME280;17813;0.000;0.000;2022-12-18T05:43:30;101083.47;;;-14.22;77.20
31183;BME280;17813;0.000;0.000;2022-12-18T05:45:57;101092.97;;;-14.19;77.22
31183;BME280;17813;0.000;0.000;2022-12-18T05:48:26;101090.44;;;-14.19;77.64
31183;BME280;17813;0.000;0.000;2022-12-18T05:51:07;101101.22;;;-14.23;77.86
31183;BME280;17813;0.000;0.000;2022-12-18T05:53:43;101103.97;;;-14.34;77.49
31183;BME280;17813;0.000;0.000;2022-12-18T05:56:21;101100.25;;;-14.39;78.15
31183;BME280;17813;0.000;0.000;2022-12-18T05:58:52;101100.78;;;-14.44;77.67
31183;BME280;17813;0.000;0.000;2022-12-18T06:01:22;101102.81;;;-14.39;77.99
31183;BME280;17813;0.000;0.000;2022-12-18T06:03:54;101107.97;;;-14.24;78.24
31183;BME280;17813;0.000;0.000;2022-12-18T06:06:28;101106.03;;;-14.41;78.45
31183;BME280;17813;0.000;0.000;2022-12-18T06:08:56;101104.38;;;-14.41;77.02
31183;BME280;17813;0.000;0.000;2022-12-18T06:11:26;101103.72;;;-14.51;77.88
31183;BME280;17813;0.000;0.000;2022-12-18T06:13:54;101111.97;;;-14.55;77.38
31183;BME280;17813;0.000;0.000;2022-12-18T06:16:21;101110.78;;;-14.47;78.51
31183;BME280;17813;0.000;0.000;2022-12-18T06:18:48;101111.66;;;-14.47;78.71
31183;BME280;17813;0.000;0.000;2022-12-18T06:21:20;101116.97;;;-14.44;78.39
31183;BME280;17813;0.000;0.000;2022-12-18T06:23:46;101131.03;;;-14.36;78.29
31183;BME280;17813;0.000;0.000;2022-12-18T06:26:14;101124.38;;;-14.34;78.52
31183;BME280;17813;0.000;0.000;2022-12-18T06:28:41;101115.53;;;-14.39;78.80
31183;BME280;17813;0.000;0.000;2022-12-18T06:31:09;101114.13;;;-14.48;77.61
31183;BME280;17813;0.000;0.000;2022-12-18T06:33:37;101115.88;;;-14.60;77.85
31183;BME280;17813;0.000;0.000;2022-12-18T06:36:10;101107.56;;;-14.71;77.53
31183;BME280;17813;0.000;0.000;2022-12-18T06:38:40;101117.84;;;-14.70;78.24
31183;BME280;17813;0.000;0.000;2022-12-18T06:41:12;101121.06;;;-14.59;77.33
31183;BME280;17813;0.000;0.000;2022-12-18T06:43:39;101126.75;;;-14.50;78.23
31183;BME280;17813;0.000;0.000;2022-12-18T06:46:25;101123.81;;;-14.43;78.00
31183;BME280;17813;0.000;0.000;2022-12-18T06:48:51;101118.28;;;-14.36;77.38
31183;BME280;17813;0.000;0.000;2022-12-18T06:51:24;101128.38;;;-14.37;78.20
31183;BME280;17813;0.000;0.000;2022-12-18T06:53:51;101122.88;;;-14.30;77.51
31183;BME280;17813;0.000;0.000;2022-12-18T06:56:19;101123.59;;;-14.33;77.85
31183;BME280;17813;0.000;0.000;2022-12-18T06:58:46;101116.81;;;-14.32;77.87
31183;BME280;17813;0.000;0.000;2022-12-18T07:01:13;101113.97;;;-14.37;78.45
31183;BME280;17813;0.000;0.000;2022-12-18T07:03:43;101120.69;;;-14.52;77.57
31183;BME280;17813;0.000;0.000;2022-12-18T07:06:19;101109.31;;;-14.70;77.38
31183;BME280;17813;0.000;0.000;2022-12-18T07:08:46;101113.44;;;-14.72;77.34
31183;BME280;17813;0.000;0.000;2022-12-18T07:11:19;101114.50;;;-14.69;78.19
31183;BME280;17813;0.000;0.000;2022-12-18T07:13:46;101112.34;;;-14.63;78.09
31183;BME280;17813;0.000;0.000;2022-12-18T07:16:17;101108.91;;;-14.63;79.10
31183;BME280;17813;0.000;0.000;2022-12-18T07:18:48;101112.66;;;-14.58;78.89
31183;BME280;17813;0.000;0.000;2022-12-18T07:21:18;101112.16;;;-14.66;77.31
31183;BME280;17813;0.000;0.000;2022-12-18T07:23:45;101121.25;;;-14.69;76.76
31183;BME280;17813;0.000;0.000;2022-12-18T07:26:16;101126.16;;;-14.59;77.60
31183;BME280;17813;0.000;0.000;2022-12-18T07:28:57;101124.78;;;-14.67;76.53
31183;BME280;17813;0.000;0.000;2022-12-18T07:31:25;101132.34;;;-14.69;76.75
31183;BME280;17813;0.000;0.000;2022-12-18T07:34:18;101131.06;;;-14.62;77.50
31183;BME280;17813;0.000;0.000;2022-12-18T07:36:57;101133.03;;;-14.71;77.58
31183;BME280;17813;0.000;0.000;2022-12-18T07:39:36;101136.56;;;-14.56;77.98
31183;BME280;17813;0.000;0.000;2022-12-18T07:42:34;101132.84;;;-14.48;77.91
31183;BME280;17813;0.000;0.000;2022-12-18T07:45:12;101131.41;;;-14.30;77.62
31183;BME280;17813;0.000;0.000;2022-12-18T07:47:39;101130.72;;;-14.14;78.66
31183;BME280;17813;0.000;0.000;2022-12-18T07:50:32;101125.59;;;-14.01;78.03
31183;BME280;17813;0.000;0.000;2022-12-18T07:52:59;101126.16;;;-13.91;78.09
31183;BME280;17813;0.000;0.000;2022-12-18T07:55:36;101132.25;;;-13.61;78.46
31183;BME280;17813;0.000;0.000;2022-12-18T07:58:09;101128.34;;;-12.99;77.65
31183;BME280;17813;0.000;0.000;2022-12-18T08:00:37;101131.63;;;-12.26;76.10
31183;BME280;17813;0.000;0.000;2022-12-18T08:03:04;101197.59;;;-11.26;75.66
31183;BME280;17813;0.000;0.000;2022-12-18T08:05:31;101135.03;;;-11.31;72.88
31183;BME280;17813;0.000;0.000;2022-12-18T08:07:58;101143.41;;;-11.18;72.67
31183;BME280;17813;0.000;0.000;2022-12-18T08:10:25;101151.13;;;-10.84;72.99
31183;BME280;17813;0.000;0.000;2022-12-18T08:12:52;101155.00;;;-10.58;72.42
31183;BME280;17813;0.000;0.000;2022-12-18T08:15:21;101163.00;;;-9.98;71.07
31183;BME280;17813;0.000;0.000;2022-12-18T08:17:47;115813.16;;;-143.88;71.07
31183;BME280;17813;0.000;0.000;2022-12-18T08:20:15;115813.16;;;-143.88;69.59
31183;BME280;17813;0.000;0.000;2022-12-18T08:22:43;115813.16;;;-143.88;67.43
31183;BME280;17813;0.000;0.000;2022-12-18T08:25:11;115813.16;;;-143.88;64.95
31183;BME280;17813;0.000;0.000;2022-12-18T08:27:39;115813.16;;;-143.88;61.96
31183;BME280;17813;0.000;0.000;2022-12-18T08:30:06;115813.16;;;-143.88;60.30
31183;BME280;17813;0.000;0.000;2022-12-18T08:32:34;79587.34;;;-143.88;58.71
31183;BME280;17813;0.000;0.000;2022-12-18T08:35:02;79463.03;;;-142.58;57.13
31183;BME280;17813;0.000;0.000;2022-12-18T08:37:56;79389.84;;;-142.58;54.77
31183;BME280;17813;0.000;0.000;2022-12-18T08:40:23;79275.69;;;-142.58;53.90
31183;BME280;17813;0.000;0.000;2022-12-18T08:42:50;79151.50;;;-142.58;52.25
31183;BME280;17813;0.000;0.000;2022-12-18T08:45:37;78614.19;;;-142.58;46.70
31183;BME280;17813;0.000;0.000;2022-12-18T08:48:04;78970.31;;;-142.58;49.52
31183;BME280;17813;0.000;0.000;2022-12-18T08:50:31;78899.06;;;-142.58;48.97
31183;BME280;17813;0.000;0.000;2022-12-18T08:53:00;78903.13;;;-142.58;49.60
31183;BME280;17813;0.000;0.000;2022-12-18T08:55:29;101104.63;;;-142.58;48.86
31183;BME280;17813;0.000;0.000;2022-12-18T08:58:03;78856.31;;;-142.58;48.88
31183;BME280;17813;0.000;0.000;2022-12-18T09:00:30;78756.53;;;-142.58;48.19
31183;BME280;17813;0.000;0.000;2022-12-18T09:02:59;78758.59;;;-142.58;0.00
31183;BME280;17813;0.000;0.000;2022-12-18T09:05:31;78750.44;;;-142.58;47.85
31183;BME280;17813;0.000;0.000;2022-12-18T09:07:58;78894.97;;;-142.58;47.19
31183;BME280;17813;0.000;0.000;2022-12-18T09:10:31;78974.38;;;-142.58;49.66
31183;BME280;17813;0.000;0.000;2022-12-18T09:13:01;78913.31;;;-142.58;48.98
31183;BME280;17813;0.000;0.000;2022-12-18T09:15:46;78825.75;;;-142.58;48.30
31183;BME280;17813;0.000;0.000;2022-12-18T09:18:17;78693.44;;;-142.58;47.51
31183;BME280;17813;0.000;0.000;2022-12-18T09:20:46;78595.84;;;-142.58;46.13
31183;BME280;17813;0.000;0.000;2022-12-18T09:23:16;78559.22;;;-142.58;43.75
31183;BME280;17813;0.000;0.000;2022-12-18T09:25:43;78530.72;;;-142.58;44.53
31183;BME280;17813;0.000;0.000;2022-12-18T09:28:12;78422.69;;;-142.58;44.33
31183;BME280;17813;0.000;0.000;2022-12-18T09:30:46;55254.22;;;-142.58;42.10
31183;BME280;17813;0.000;0.000;2022-12-18T09:33:13;78298.53;;;-142.58;42.09
31183;BME280;17813;0.000;0.000;2022-12-18T09:35:41;78310.88;;;-142.58;41.94
31183;BME280;17813;0.000;0.000;2022-12-18T09:38:15;78310.75;;;-142.58;41.81
31183;BME280;17813;0.000;0.000;2022-12-18T09:40:51;78249.69;;;-142.58;40.77
31183;BME280;17813;0.000;0.000;2022-12-18T09:43:35;78192.69;;;-142.58;40.14
31183;BME280;17813;0.000;0.000;2022-12-18T09:46:07;78154.03;;;-142.58;38.83
31183;BME280;17813;0.000;0.000;2022-12-18T09:48:41;78105.19;;;-142.58;39.21
31183;BME280;17813;0.000;0.000;2022-12-18T09:51:36;78082.91;;;-142.58;38.88
31183;BME280;17813;0.000;0.000;2022-12-18T09:54:11;78247.66;;;-142.58;37.04
31183;BME280;17813;0.000;0.000;2022-12-18T09:56:43;78322.97;;;-142.58;40.15
31183;BME280;17813;0.000;0.000;2022-12-18T09:59:37;78392.16;;;-142.58;40.83
31183;BME280;17813;0.000;0.000;2022-12-18T10:02:25;78481.88;;;-142.58;40.18
31183;BME280;17813;0.000;0.000;2022-12-18T10:05:37;78512.41;;;-142.58;42.89
31183;BME280;17813;0.000;0.000;2022-12-18T10:08:13;78512.41;;;-142.58;42.23
31183;BME280;17813;0.000;0.000;2022-12-18T10:10:53;78430.84;;;-142.58;42.17
31183;BME280;17813;0.000;0.000;2022-12-18T10:16:15;78382.00;;;-142.58;41.80
31183;BME280;17813;0.000;0.000;2022-12-18T10:22:44;78314.81;;;-142.58;40.38
31183;BME280;17813;0.000;0.000;2022-12-18T10:28:13;78133.66;;;-142.58;41.23
31183;BME280;17813;0.000;0.000;2022-12-18T10:30:42;78040.03;;;-142.58;37.75
31183;BME280;17813;0.000;0.000;2022-12-18T10:33:39;78066.63;;;-142.58;38.72
31183;BME280;17813;0.000;0.000;2022-12-18T10:36:06;78117.38;;;-143.88;38.57
31183;BME280;17813;0.000;0.000;2022-12-18T10:38:33;100973.13;;;5.98;38.76
31183;BME280;17813;0.000;0.000;2022-12-18T10:41:25;100970.88;;;6.65;36.00
31183;BME280;17813;0.000;0.000;2022-12-18T10:44:20;100953.84;;;7.52;35.36
31183;BME280;17813;0.000;0.000;2022-12-18T10:46:50;100946.94;;;7.47;35.21
31183;BME280;17813;0.000;0.000;2022-12-18T10:49:28;100953.69;;;6.05;35.57
31183;BME280;17813;0.000;0.000;2022-12-18T10:52:20;77783.59;;;-142.58;35.57
31183;BME280;17813;0.000;0.000;2022-12-18T10:57:39;78127.56;;;-142.58;39.74
31183;BME280;17813;0.000;0.000;2022-12-18T11:00:27;100971.19;;;-142.58;38.99
31183;BME280;17813;0.000;0.000;2022-12-18T11:02:55;78046.16;;;-143.88;39.00
31183;BME280;17813;0.000;0.000;2022-12-18T11:05:33;77993.22;;;-142.58;39.39
31183;BME280;17813;0.000;0.000;2022-12-18T11:08:02;100953.38;;;5.74;38.74
31183;BME280;17813;0.000;0.000;2022-12-18T11:10:35;100951.09;;;6.84;37.19
31183;BME280;17813;0.000;0.000;2022-12-18T11:13:23;100946.38;;;7.34;36.11
31183;BME280;17813;0.000;0.000;2022-12-18T11:15:51;100956.19;;;8.28;36.16
31183;BME280;17813;0.000;0.000;2022-12-18T11:18:37;100948.69;;;8.73;35.51
31183;BME280;17813;0.000;0.000;2022-12-18T11:21:09;100964.28;;;8.82;34.89
31183;BME280;17813;0.000;0.000;2022-12-18T11:23:49;100960.19;;;9.00;34.00
31183;BME280;17813;0.000;0.000;2022-12-18T11:26:16;100937.13;;;9.31;34.53
31183;BME280;17813;0.000;0.000;2022-12-18T11:28:49;100949.59;;;9.28;33.67
31183;BME280;17813;0.000;0.000;2022-12-18T11:31:25;100956.38;;;8.22;34.27
31183;BME280;17813;0.000;0.000;2022-12-18T11:34:05;100951.97;;;7.56;35.46
31183;BME280;17813;0.000;0.000;2022-12-18T11:36:44;100953.44;;;7.33;36.19
31183;BME280;17813;0.000;0.000;2022-12-18T11:47:49;77987.13;;;-142.58;38.09
31183;BME280;17813;0.000;0.000;2022-12-18T11:52:56;78196.78;;;-142.58;41.82
31183;BME280;17813;0.000;0.000;2022-12-18T12:07:37;78559.22;;;-142.58;48.44
31183;BME280;17813;0.000;0.000;2022-12-18T12:13:21;78626.25;;;-142.58;51.33
31183;BME280;17813;0.000;0.000;2022-12-18T12:18:24;78604.00;;;-142.58;49.74
31183;BME280;17813;0.000;0.000;2022-12-18T12:27:03;78567.34;;;-142.58;0.00
31183;BME280;17813;0.000;0.000;2022-12-18T12:29:54;78593.81;;;-142.58;51.32
31183;BME280;17813;0.000;0.000;2022-12-18T12:38:13;78612.16;;;-142.58;52.79
31183;BME280;17813;0.000;0.000;2022-12-18T12:41:02;78606.03;;;-142.58;52.77
31183;BME280;17813;0.000;0.000;2022-12-18T12:43:41;78591.78;;;-142.58;53.39
31183;BME280;17813;0.000;0.000;2022-12-18T12:46:19;78583.50;;;-142.58;53.27
31183;BME280;17813;0.000;0.000;2022-12-18T12:48:54;78571.44;;;-142.58;53.54
31183;BME280;17813;0.000;0.000;2022-12-18T12:51:37;78528.69;;;-142.58;51.44
31183;BME280;17813;0.000;0.000;2022-12-18T12:54:25;78498.03;;;-142.58;51.34
31183;BME280;17813;0.000;0.000;2022-12-18T13:00:00;78426.78;;;-142.58;50.22
31183;BME280;17813;0.000;0.000;2022-12-18T13:02:59;78432.88;;;-142.58;49.99
31183;BME280;17813;0.000;0.000;2022-12-18T13:08:30;78512.41;;;-142.58;52.46
31183;BME280;17813;0.000;0.000;2022-12-18T13:11:00;78559.22;;;-142.58;53.36
31183;BME280;17813;0.000;0.000;2022-12-18T13:13:58;78587.72;;;-142.58;54.01
31183;BME280;17813;0.000;0.000;2022-12-18T13:16:26;78610.09;;;-142.58;54.39
31183;BME280;17813;0.000;0.000;2022-12-18T13:18:57;78630.34;;;-142.58;54.91
31183;BME280;17813;0.000;0.000;2022-12-18T13:21:33;78656.81;;;-142.58;0.00
31183;BME280;17813;0.000;0.000;2022-12-18T13:24:27;78669.00;;;-142.58;54.63
31183;BME280;17813;0.000;0.000;2022-12-18T13:26:55;100918.25;;;-142.58;56.17
31183;BME280;17813;0.000;0.000;2022-12-18T13:29:42;78614.19;;;-142.58;60.94
31183;BME280;17813;0.000;0.000;2022-12-18T13:32:27;78760.63;;;-143.88;56.43
31183;BME280;17813;0.000;0.000;2022-12-18T13:37:55;78758.59;;;-142.58;56.95
31183;BME280;17813;0.000;0.000;2022-12-18T13:48:39;78726.00;;;-142.58;57.02
31183;BME280;17813;0.000;0.000;2022-12-18T13:51:10;78715.84;;;-142.58;56.32
31183;BME280;17813;0.000;0.000;2022-12-18T13:54:02;78726.00;;;-142.58;55.81
31183;BME280;17813;0.000;0.000;2022-12-18T13:56:33;78754.50;;;-142.58;56.60
31183;BME280;17813;0.000;0.000;2022-12-18T13:59:15;78760.63;;;-142.58;56.08
31183;BME280;17813;0.000;0.000;2022-12-18T14:02:15;100886.41;;;-142.58;56.32
31183;BME280;17813;0.000;0.000;2022-12-18T14:04:48;100885.28;;;-2.01;57.89
31183;BME280;17813;0.000;0.000;2022-12-18T14:09:53;100867.56;;;-2.36;60.18
31183;BME280;17813;0.000;0.000;2022-12-18T14:12:45;100870.91;;;-2.44;59.05
31183;BME280;17813;0.000;0.000;2022-12-18T14:18:03;100887.91;;;-2.65;59.88
31183;BME280;17813;0.000;0.000;2022-12-18T14:20:36;100891.28;;;-2.70;59.21
31183;BME280;17813;0.000;0.000;2022-12-18T14:23:03;100886.00;;;-2.76;58.70
31183;BME280;17813;0.000;0.000;2022-12-18T14:25:31;100891.03;;;-2.88;59.19
31183;BME280;17813;0.000;0.000;2022-12-18T14:30:38;100892.28;;;-3.18;60.73
31183;BME280;17813;0.000;0.000;2022-12-18T14:38:39;100890.34;;;-3.31;60.09
31183;BME280;17813;0.000;0.000;2022-12-18T14:41:14;100897.97;;;-3.40;60.29
31183;BME280;17813;0.000;0.000;2022-12-18T14:43:48;100899.47;;;-3.53;60.15
31183;BME280;17813;0.000;0.000;2022-12-18T14:46:33;100895.66;;;-3.73;62.00
31183;BME280;17813;0.000;0.000;2022-12-18T14:49:03;100893.41;;;-4.00;64.43
31183;BME280;17813;0.000;0.000;2022-12-18T14:51:33;100892.88;;;-4.26;65.21
31183;BME280;17813;0.000;0.000;2022-12-18T14:54:16;100892.66;;;-4.37;65.46
31183;BME280;17813;0.000;0.000;2022-12-18T14:57:25;100889.84;;;-4.47;64.97
31183;BME280;17813;0.000;0.000;2022-12-18T15:00:10;100884.53;;;-4.54;65.66
31183;BME280;17813;0.000;0.000;2022-12-18T15:02:57;100880.81;;;-4.66;65.56
31183;BME280;17813;0.000;0.000;2022-12-18T15:05:30;100885.84;;;-4.72;66.64
31183;BME280;17813;0.000;0.000;2022-12-18T15:08:35;100889.31;;;-4.72;66.09
31183;BME280;17813;0.000;0.000;2022-12-18T15:17:28;100914.28;;;-4.74;64.43
31183;BME280;17813;0.000;0.000;2022-12-18T15:20:09;100912.69;;;-4.69;63.97